sensor_id;sensor_type;location;lat;lon;timestamp;pressure;altitude;pressure_sealevel;temperature;humidity
23361;BME280;11852;50.082;18.554;2023-12-22T00:00:47;95670.0;;;6.47;91.45
23361;BME280;11852;50.082;18.554;2023-12-22T00:01:51;95686.0;;;6.49;90.73
23361;BME280;11852;50.082;18.554;2023-12-22T00:02:56;95682.0;;;6.33;90.12
23361;BME280;11852;50.082;18.554;2023-12-22T00:04:01;95687.0;;;6.27;90.23
23361;BME280;11852;50.082;18.554;2023-12-22T00:05:06;95701.0;;;6.35;90.67
23361;BME280;11852;50.082;18.554;2023-12-22T00:06:11;95707.0;;;6.07;88.93
23361;BME280;11852;50.082;18.554;2023-12-22T00:07:16;95718.0;;;5.96;88.68
23361;BME280;11852;50.082;18.554;2023-12-22T00:08:20;95723.0;;;6.02;88.54
23361;BME280;11852;50.082;18.554;2023-12-22T00:09:25;95736.0;;;6.0;88.32
23361;BME280;11852;50.082;18.554;2023-12-22T00:10:30;95723.0;;;6.1;88.99
23361;BME280;11852;50.082;18.554;2023-12-22T00:11:35;95724.0;;;5.93;87.31
23361;BME280;11852;50.082;18.554;2023-12-22T00:12:39;95722.0;;;6.12;87.82
23361;BME280;11852;50.082;18.554;2023-12-22T00:13:44;95721.0;;;6.17;88.65
23361;BME280;11852;50.082;18.554;2023-12-22T00:14:49;95727.0;;;6.04;87.77
23361;BME280;11852;50.082;18.554;2023-12-22T00:15:54;95727.0;;;6.08;87.5
23361;BME280;11852;50.082;18.554;2023-12-22T00:16:59;95732.0;;;6.06;88.09
23361;BME280;11852;50.082;18.554;2023-12-22T00:18:04;95739.0;;;6.06;88.18
23361;BME280;11852;50.082;18.554;2023-12-22T00:19:08;95754.0;;;6.05;87.59
23361;BME280;11852;50.082;18.554;2023-12-22T00:20:13;95738.0;;;6.01;88.55
23361;BME280;11852;50.082;18.554;2023-12-22T00:21:18;95751.0;;;5.85;88.42
23361;BME280;11852;50.082;18.554;2023-12-22T00:22:23;95751.0;;;6.02;88.37
23361;BME280;11852;50.082;18.554;2023-12-22T00:23:28;95754.0;;;6.23;88.53
23361;BME280;11852;50.082;18.554;2023-12-22T00:24:33;95757.0;;;6.06;88.54
23361;BME280;11852;50.082;18.554;2023-12-22T00:25:37;95759.0;;;6.06;88.9
23361;BME280;11852;50.082;18.554;2023-12-22T00:26:42;95751.0;;;5.92;89.16
23361;BME280;11852;50.082;18.554;2023-12-22T00:27:47;95748.0;;;5.91;89.69
23361;BME280;11852;50.082;18.554;2023-12-22T00:28:52;95749.0;;;6.02;89.1
23361;BME280;11852;50.082;18.554;2023-12-22T00:29:56;95755.0;;;6.02;89.11
23361;BME280;11852;50.082;18.554;2023-12-22T00:31:01;95751.0;;;5.93;89.07
23361;BME280;11852;50.082;18.554;2023-12-22T00:32:06;95748.0;;;5.83;88.91
23361;BME280;11852;50.082;18.554;2023-12-22T00:33:11;95750.0;;;5.99;88.61
23361;BME280;11852;50.082;18.554;2023-12-22T00:34:16;95752.0;;;5.72;89.06
23361;BME280;11852;50.082;18.554;2023-12-22T00:35:21;95749.0;;;5.69;88.34
23361;BME280;11852;50.082;18.554;2023-12-22T00:36:25;95747.0;;;5.83;88.18
23361;BME280;11852;50.082;18.554;2023-12-22T00:37:30;95747.0;;;5.81;88.5
23361;BME280;11852;50.082;18.554;2023-12-22T00:38:35;95740.0;;;5.83;87.81
23361;BME280;11852;50.082;18.554;2023-12-22T00:39:40;95738.0;;;5.68;86.82
23361;BME280;11852;50.082;18.554;2023-12-22T00:40:44;95744.0;;;5.74;87.39
23361;BME280;11852;50.082;18.554;2023-12-22T00:41:49;95745.0;;;5.49;87.72
23361;BME280;11852;50.082;18.554;2023-12-22T00:42:54;95743.0;;;5.71;87.56
23361;BME280;11852;50.082;18.554;2023-12-22T00:43:59;95742.0;;;5.75;87.31
23361;BME280;11852;50.082;18.554;2023-12-22T00:45:04;95745.0;;;5.63;87.7
23361;BME280;11852;50.082;18.554;2023-12-22T00:46:09;95744.0;;;5.59;86.9
23361;BME280;11852;50.082;18.554;2023-12-22T00:47:13;95748.0;;;5.56;86.98
23361;BME280;11852;50.082;18.554;2023-12-22T00:48:18;95748.0;;;5.71;86.8
23361;BME280;11852;50.082;18.554;2023-12-22T00:49:23;95754.0;;;5.8;86.6
23361;BME280;11852;50.082;18.554;2023-12-22T00:50:28;95756.0;;;5.72;86.44
23361;BME280;11852;50.082;18.554;2023-12-22T00:51:32;95767.0;;;5.59;85.47
23361;BME280;11852;50.082;18.554;2023-12-22T00:52:37;95770.0;;;5.69;86.27
23361;BME280;11852;50.082;18.554;2023-12-22T00:53:42;95763.0;;;5.75;86.13
23361;BME280;11852;50.082;18.554;2023-12-22T00:54:47;95764.0;;;5.78;85.84
23361;BME280;11852;50.082;18.554;2023-12-22T00:55:51;95768.0;;;5.65;85.62
23361;BME280;11852;50.082;18.554;2023-12-22T00:56:56;95769.0;;;5.74;85.47
23361;BME280;11852;50.082;18.554;2023-12-22T00:58:01;95763.0;;;5.72;85.63
23361;BME280;11852;50.082;18.554;2023-12-22T00:59:06;95772.0;;;5.71;85.48
23361;BME280;11852;50.082;18.554;2023-12-22T01:00:11;95770.0;;;5.47;84.79
23361;BME280;11852;50.082;18.554;2023-12-22T01:01:16;95776.0;;;5.56;84.74
23361;BME280;11852;50.082;18.554;2023-12-22T01:02:20;95776.0;;;5.43;84.47
23361;BME280;11852;50.082;18.554;2023-12-22T01:03:25;95783.0;;;5.53;85.12
23361;BME280;11852;50.082;18.554;2023-12-22T01:04:30;95779.0;;;5.54;84.76
23361;BME280;11852;50.082;18.554;2023-12-22T01:05:35;95782.0;;;5.45;84.34
23361;BME280;11852;50.082;18.554;2023-12-22T01:06:39;95788.0;;;5.45;84.49
23361;BME280;11852;50.082;18.554;2023-12-22T01:07:44;95785.0;;;5.48;84.34
23361;BME280;11852;50.082;18.554;2023-12-22T01:08:49;95786.0;;;5.52;84.14
23361;BME280;11852;50.082;18.554;2023-12-22T01:09:54;95786.0;;;5.34;84.27
23361;BME280;11852;50.082;18.554;2023-12-22T01:10:59;95787.0;;;5.36;84.49
23361;BME280;11852;50.082;18.554;2023-12-22T01:12:04;95789.0;;;5.4;84.86
23361;BME280;11852;50.082;18.554;2023-12-22T01:13:08;95791.0;;;5.39;84.42
23361;BME280;11852;50.082;18.554;2023-12-22T01:14:13;95800.0;;;5.46;84.54
23361;BME280;11852;50.082;18.554;2023-12-22T01:15:18;95801.0;;;5.34;85.19
23361;BME280;11852;50.082;18.554;2023-12-22T01:16:23;95800.0;;;5.26;84.89
23361;BME280;11852;50.082;18.554;2023-12-22T01:17:28;95808.0;;;5.34;84.66
23361;BME280;11852;50.082;18.554;2023-12-22T01:18:33;95803.0;;;5.19;84.9
23361;BME280;11852;50.082;18.554;2023-12-22T01:19:37;95804.0;;;5.27;84.47
23361;BME280;11852;50.082;18.554;2023-12-22T01:20:42;95809.0;;;5.18;84.68
23361;BME280;11852;50.082;18.554;2023-12-22T01:21:47;95811.0;;;5.31;84.54
23361;BME280;11852;50.082;18.554;2023-12-22T01:22:52;95811.0;;;5.24;84.99
23361;BME280;11852;50.082;18.554;2023-12-22T01:23:57;95826.0;;;5.25;84.55
23361;BME280;11852;50.082;18.554;2023-12-22T01:25:01;95822.0;;;5.19;84.79
23361;BME280;11852;50.082;18.554;2023-12-22T01:26:06;95830.0;;;5.09;84.46
23361;BME280;11852;50.082;18.554;2023-12-22T01:27:11;95830.0;;;5.21;84.59
23361;BME280;11852;50.082;18.554;2023-12-22T01:28:16;95830.0;;;5.28;84.84
23361;BME280;11852;50.082;18.554;2023-12-22T01:29:20;95833.0;;;5.3;85.21
23361;BME280;11852;50.082;18.554;2023-12-22T01:30:25;95825.0;;;5.35;85.1
23361;BME280;11852;50.082;18.554;2023-12-22T01:31:30;95821.0;;;5.22;84.54
23361;BME280;11852;50.082;18.554;2023-12-22T01:32:35;95824.0;;;5.22;85.01
23361;BME280;11852;50.082;18.554;2023-12-22T01:33:40;95824.0;;;5.19;85.14
23361;BME280;11852;50.082;18.554;2023-12-22T01:34:44;95826.0;;;5.06;85.2
23361;BME280;11852;50.082;18.554;2023-12-22T01:35:49;95819.0;;;5.12;84.68
23361;BME280;11852;50.082;18.554;2023-12-22T01:36:54;95816.0;;;5.19;84.5
23361;BME280;11852;50.082;18.554;2023-12-22T01:37:59;95814.0;;;5.18;84.05
23361;BME280;11852;50.082;18.554;2023-12-22T01:39:04;95811.0;;;5.19;83.84
23361;BME280;11852;50.082;18.554;2023-12-22T01:40:08;95805.0;;;5.27;83.68
23361;BME280;11852;50.082;18.554;2023-12-22T01:41:13;95813.0;;;5.27;83.76
23361;BME280;11852;50.082;18.554;2023-12-22T01:42:18;95808.0;;;5.22;83.44
23361;BME280;11852;50.082;18.554;2023-12-22T01:43:23;95797.0;;;5.16;83.64
23361;BME280;11852;50.082;18.554;2023-12-22T01:44:28;95802.0;;;5.06;83.3
23361;BME280;11852;50.082;18.554;2023-12-22T01:45:33;95800.0;;;5.0;82.71
23361;BME280;11852;50.082;18.554;2023-12-22T01:46:37;95796.0;;;4.98;83.13
23361;BME280;11852;50.082;18.554;2023-12-22T01:47:42;95798.0;;;5.09;83.36
23361;BME280;11852;50.082;18.554;2023-12-22T01:48:47;95796.0;;;5.07;83.21
23361;BME280;11852;50.082;18.554;2023-12-22T01:49:52;95796.0;;;5.06;82.95
23361;BME280;11852;50.082;18.554;2023-12-22T01:50:57;95798.0;;;5.11;83.58
23361;BME280;11852;50.082;18.554;2023-12-22T01:52:01;95798.0;;;5.12;83.63
23361;BME280;11852;50.082;18.554;2023-12-22T01:53:06;95799.0;;;5.15;83.93
23361;BME280;11852;50.082;18.554;2023-12-22T01:54:11;95799.0;;;5.19;84.17
23361;BME280;11852;50.082;18.554;2023-12-22T01:55:16;95793.0;;;5.22;84.07
23361;BME280;11852;50.082;18.554;2023-12-22T01:56:21;95793.0;;;5.14;84.41
23361;BME280;11852;50.082;18.554;2023-12-22T01:57:25;95793.0;;;5.17;84.3
23361;BME280;11852;50.082;18.554;2023-12-22T01:58:30;95793.0;;;5.02;85.05
23361;BME280;11852;50.082;18.554;2023-12-22T01:59:35;95791.0;;;4.76;85.72
23361;BME280;11852;50.082;18.554;2023-12-22T02:00:40;95794.0;;;4.79;86.33
23361;BME280;11852;50.082;18.554;2023-12-22T02:01:44;95785.0;;;4.79;87.24
23361;BME280;11852;50.082;18.554;2023-12-22T02:02:49;95793.0;;;4.63;87.68
23361;BME280;11852;50.082;18.554;2023-12-22T02:03:54;95794.0;;;4.66;88.64
23361;BME280;11852;50.082;18.554;2023-12-22T02:04:59;95793.0;;;4.73;88.77
23361;BME280;11852;50.082;18.554;2023-12-22T02:06:04;95792.0;;;4.62;89.76
23361;BME280;11852;50.082;18.554;2023-12-22T02:07:08;95787.0;;;4.64;89.89
23361;BME280;11852;50.082;18.554;2023-12-22T02:08:13;95783.0;;;4.45;90.59
23361;BME280;11852;50.082;18.554;2023-12-22T02:09:18;95783.0;;;4.5;91.22
23361;BME280;11852;50.082;18.554;2023-12-22T02:10:23;95786.0;;;4.56;91.01
23361;BME280;11852;50.082;18.554;2023-12-22T02:11:27;95795.0;;;4.3;91.53
23361;BME280;11852;50.082;18.554;2023-12-22T02:12:32;95794.0;;;4.22;92.64
23361;BME280;11852;50.082;18.554;2023-12-22T02:13:37;95799.0;;;4.44;92.19
23361;BME280;11852;50.082;18.554;2023-12-22T02:14:42;95798.0;;;4.49;91.26
23361;BME280;11852;50.082;18.554;2023-12-22T02:15:47;95801.0;;;4.57;90.88
23361;BME280;11852;50.082;18.554;2023-12-22T02:16:52;95799.0;;;4.54;90.78
23361;BME280;11852;50.082;18.554;2023-12-22T02:19:40;95789.0;;;4.49;90.3
23361;BME280;11852;50.082;18.554;2023-12-22T02:20:19;95786.0;;;4.54;90.1
23361;BME280;11852;50.082;18.554;2023-12-22T02:21:23;95786.0;;;4.63;89.94
23361;BME280;11852;50.082;18.554;2023-12-22T02:22:28;95790.0;;;4.45;90.46
23361;BME280;11852;50.082;18.554;2023-12-22T02:23:33;95792.0;;;4.32;91.11
23361;BME280;11852;50.082;18.554;2023-12-22T02:24:38;95789.0;;;4.35;91.19
23361;BME280;11852;50.082;18.554;2023-12-22T02:25:43;95788.0;;;4.18;91.51
23361;BME280;11852;50.082;18.554;2023-12-22T02:26:47;95792.0;;;4.24;91.6
23361;BME280;11852;50.082;18.554;2023-12-22T02:27:58;95791.0;;;4.27;91.52
23361;BME280;11852;50.082;18.554;2023-12-22T02:29:02;95792.0;;;4.36;91.59
23361;BME280;11852;50.082;18.554;2023-12-22T02:30:08;95798.0;;;4.36;91.17
23361;BME280;11852;50.082;18.554;2023-12-22T02:31:17;95794.0;;;4.43;90.93
23361;BME280;11852;50.082;18.554;2023-12-22T02:32:22;95795.0;;;4.25;89.93
23361;BME280;11852;50.082;18.554;2023-12-22T02:33:26;95790.0;;;4.55;90.11
23361;BME280;11852;50.082;18.554;2023-12-22T02:34:31;95789.0;;;4.45;90.64
23361;BME280;11852;50.082;18.554;2023-12-22T02:35:36;95796.0;;;4.38;90.73
23361;BME280;11852;50.082;18.554;2023-12-22T02:36:40;95795.0;;;4.18;90.33
23361;BME280;11852;50.082;18.554;2023-12-22T02:37:46;95798.0;;;4.31;89.47
23361;BME280;11852;50.082;18.554;2023-12-22T02:38:50;95801.0;;;4.46;89.45
23361;BME280;11852;50.082;18.554;2023-12-22T02:39:54;95789.0;;;4.45;88.77
23361;BME280;11852;50.082;18.554;2023-12-22T02:40:59;95801.0;;;4.29;88.51
23361;BME280;11852;50.082;18.554;2023-12-22T02:42:04;95792.0;;;4.37;87.09
23361;BME280;11852;50.082;18.554;2023-12-22T02:43:09;95802.0;;;4.25;87.86
23361;BME280;11852;50.082;18.554;2023-12-22T02:44:14;95803.0;;;4.28;87.71
23361;BME280;11852;50.082;18.554;2023-12-22T02:45:19;95805.0;;;4.45;87.13
23361;BME280;11852;50.082;18.554;2023-12-22T02:46:23;95813.0;;;4.52;86.66
23361;BME280;11852;50.082;18.554;2023-12-22T02:47:28;95805.0;;;4.38;86.2
23361;BME280;11852;50.082;18.554;2023-12-22T02:48:33;95799.0;;;4.34;83.64
23361;BME280;11852;50.082;18.554;2023-12-22T02:49:37;95807.0;;;4.3;83.94
23361;BME280;11852;50.082;18.554;2023-12-22T02:50:42;95819.0;;;4.42;81.89
23361;BME280;11852;50.082;18.554;2023-12-22T02:51:47;95815.0;;;4.47;81.58
23361;BME280;11852;50.082;18.554;2023-12-22T02:52:52;95812.0;;;4.59;81.32
23361;BME280;11852;50.082;18.554;2023-12-22T02:53:56;95818.0;;;4.42;78.9
23361;BME280;11852;50.082;18.554;2023-12-22T02:55:02;95809.0;;;4.44;79.08
23361;BME280;11852;50.082;18.554;2023-12-22T02:56:06;95813.0;;;4.4;79.45
23361;BME280;11852;50.082;18.554;2023-12-22T02:57:11;95813.0;;;4.47;78.95
23361;BME280;11852;50.082;18.554;2023-12-22T02:58:16;95815.0;;;4.49;78.47
23361;BME280;11852;50.082;18.554;2023-12-22T02:59:21;95819.0;;;4.46;78.56
23361;BME280;11852;50.082;18.554;2023-12-22T03:00:26;95814.0;;;4.57;77.45
23361;BME280;11852;50.082;18.554;2023-12-22T03:01:30;95822.0;;;4.53;77.34
23361;BME280;11852;50.082;18.554;2023-12-22T03:02:35;95819.0;;;4.58;77.69
23361;BME280;11852;50.082;18.554;2023-12-22T03:03:40;95818.0;;;4.51;77.37
23361;BME280;11852;50.082;18.554;2023-12-22T03:04:50;95818.0;;;4.48;76.83
23361;BME280;11852;50.082;18.554;2023-12-22T03:05:55;95826.0;;;4.59;77.2
23361;BME280;11852;50.082;18.554;2023-12-22T03:06:59;95831.0;;;4.72;77.63
23361;BME280;11852;50.082;18.554;2023-12-22T03:08:04;95834.0;;;4.6;77.57
23361;BME280;11852;50.082;18.554;2023-12-22T03:09:09;95832.0;;;4.56;76.58
23361;BME280;11852;50.082;18.554;2023-12-22T03:10:14;95832.0;;;4.54;77.43
23361;BME280;11852;50.082;18.554;2023-12-22T03:11:18;95831.0;;;4.31;77.22
23361;BME280;11852;50.082;18.554;2023-12-22T03:12:23;95833.0;;;4.34;77.65
23361;BME280;11852;50.082;18.554;2023-12-22T03:13:28;95836.0;;;4.47;77.44
23361;BME280;11852;50.082;18.554;2023-12-22T03:14:33;95831.0;;;4.53;77.43
23361;BME280;11852;50.082;18.554;2023-12-22T03:15:38;95827.0;;;4.47;78.45
23361;BME280;11852;50.082;18.554;2023-12-22T03:16:42;95820.0;;;4.44;77.5
23361;BME280;11852;50.082;18.554;2023-12-22T03:17:47;95829.0;;;4.44;77.5
23361;BME280;11852;50.082;18.554;2023-12-22T03:18:52;95823.0;;;4.13;77.5
23361;BME280;11852;50.082;18.554;2023-12-22T03:19:57;95827.0;;;4.37;77.15
23361;BME280;11852;50.082;18.554;2023-12-22T03:21:01;95826.0;;;4.37;77.92
23361;BME280;11852;50.082;18.554;2023-12-22T03:22:07;95823.0;;;4.44;77.51
23361;BME280;11852;50.082;18.554;2023-12-22T03:23:11;95822.0;;;4.22;77.62
23361;BME280;11852;50.082;18.554;2023-12-22T03:24:16;95820.0;;;4.49;76.63
23361;BME280;11852;50.082;18.554;2023-12-22T03:25:20;95817.0;;;4.36;77.22
23361;BME280;11852;50.082;18.554;2023-12-22T03:26:28;95819.0;;;4.38;76.42
23361;BME280;11852;50.082;18.554;2023-12-22T03:27:33;95819.0;;;4.22;76.54
23361;BME280;11852;50.082;18.554;2023-12-22T03:28:38;95821.0;;;4.44;76.76
23361;BME280;11852;50.082;18.554;2023-12-22T03:29:43;95817.0;;;4.46;76.69
23361;BME280;11852;50.082;18.554;2023-12-22T03:30:47;95817.0;;;4.43;76.46
23361;BME280;11852;50.082;18.554;2023-12-22T03:31:52;95816.0;;;4.41;77.18
23361;BME280;11852;50.082;18.554;2023-12-22T03:32:57;95815.0;;;4.34;77.13
23361;BME280;11852;50.082;18.554;2023-12-22T03:34:02;95813.0;;;4.37;77.07
23361;BME280;11852;50.082;18.554;2023-12-22T03:35:07;95819.0;;;4.23;77.82
23361;BME280;11852;50.082;18.554;2023-12-22T03:36:11;95816.0;;;4.27;76.81
23361;BME280;11852;50.082;18.554;2023-12-22T03:37:16;95813.0;;;4.3;77.6
23361;BME280;11852;50.082;18.554;2023-12-22T03:38:21;95818.0;;;4.45;77.56
23361;BME280;11852;50.082;18.554;2023-12-22T03:39:26;95814.0;;;4.42;77.62
23361;BME280;11852;50.082;18.554;2023-12-22T03:40:31;95812.0;;;4.45;78.65
23361;BME280;11852;50.082;18.554;2023-12-22T03:41:35;95812.0;;;4.23;78.54
23361;BME280;11852;50.082;18.554;2023-12-22T03:42:40;95808.0;;;4.33;78.78
23361;BME280;11852;50.082;18.554;2023-12-22T03:43:45;95809.0;;;4.21;79.52
23361;BME280;11852;50.082;18.554;2023-12-22T03:44:50;95814.0;;;4.34;79.49
23361;BME280;11852;50.082;18.554;2023-12-22T03:45:54;95805.0;;;4.16;79.33
23361;BME280;11852;50.082;18.554;2023-12-22T03:46:59;95807.0;;;4.21;79.68
23361;BME280;11852;50.082;18.554;2023-12-22T03:48:04;95807.0;;;4.13;79.43
23361;BME280;11852;50.082;18.554;2023-12-22T03:49:09;95805.0;;;4.06;80.3
23361;BME280;11852;50.082;18.554;2023-12-22T03:50:14;95806.0;;;4.14;80.59
23361;BME280;11852;50.082;18.554;2023-12-22T03:51:19;95809.0;;;4.21;80.74
23361;BME280;11852;50.082;18.554;2023-12-22T03:52:23;95806.0;;;4.2;80.64
23361;BME280;11852;50.082;18.554;2023-12-22T03:53:28;95806.0;;;4.18;79.76
23361;BME280;11852;50.082;18.554;2023-12-22T03:54:33;95806.0;;;3.93;79.96
23361;BME280;11852;50.082;18.554;2023-12-22T03:55:38;95805.0;;;4.17;80.11
23361;BME280;11852;50.082;18.554;2023-12-22T03:56:43;95798.0;;;4.21;80.69
23361;BME280;11852;50.082;18.554;2023-12-22T03:57:47;95797.0;;;4.24;80.48
23361;BME280;11852;50.082;18.554;2023-12-22T03:58:52;95792.0;;;4.15;81.44
23361;BME280;11852;50.082;18.554;2023-12-22T03:59:57;95789.0;;;4.13;81.46
23361;BME280;11852;50.082;18.554;2023-12-22T04:01:02;95787.0;;;4.28;81.43
23361;BME280;11852;50.082;18.554;2023-12-22T04:02:07;95788.0;;;4.27;81.55
23361;BME280;11852;50.082;18.554;2023-12-22T04:03:11;95783.0;;;4.16;81.62
23361;BME280;11852;50.082;18.554;2023-12-22T04:04:16;95789.0;;;4.17;82.43
23361;BME280;11852;50.082;18.554;2023-12-22T04:05:21;95789.0;;;4.14;83.37
23361;BME280;11852;50.082;18.554;2023-12-22T04:06:26;95786.0;;;4.29;82.88
23361;BME280;11852;50.082;18.554;2023-12-22T04:07:31;95777.0;;;4.15;83.2
23361;BME280;11852;50.082;18.554;2023-12-22T04:08:36;95777.0;;;3.98;84.81
23361;BME280;11852;50.082;18.554;2023-12-22T04:09:41;95775.0;;;4.0;85.49
23361;BME280;11852;50.082;18.554;2023-12-22T04:10:46;95772.0;;;4.14;85.38
23361;BME280;11852;50.082;18.554;2023-12-22T04:11:50;95769.0;;;4.05;85.55
23361;BME280;11852;50.082;18.554;2023-12-22T04:12:55;95770.0;;;3.83;86.26
23361;BME280;11852;50.082;18.554;2023-12-22T04:14:00;95771.0;;;3.97;86.75
23361;BME280;11852;50.082;18.554;2023-12-22T04:15:05;95773.0;;;3.56;88.17
23361;BME280;11852;50.082;18.554;2023-12-22T04:16:10;95773.0;;;3.61;88.57
23361;BME280;11852;50.082;18.554;2023-12-22T04:17:15;95781.0;;;3.72;88.42
23361;BME280;11852;50.082;18.554;2023-12-22T04:18:19;95774.0;;;3.73;88.46
23361;BME280;11852;50.082;18.554;2023-12-22T04:19:24;95763.0;;;3.68;88.77
23361;BME280;11852;50.082;18.554;2023-12-22T04:20:29;95756.0;;;3.88;87.76
23361;BME280;11852;50.082;18.554;2023-12-22T04:21:34;95760.0;;;3.78;87.28
23361;BME280;11852;50.082;18.554;2023-12-22T04:22:39;95762.0;;;3.93;87.43
23361;BME280;11852;50.082;18.554;2023-12-22T04:23:43;95773.0;;;3.69;87.85
23361;BME280;11852;50.082;18.554;2023-12-22T04:24:48;95767.0;;;3.7;88.37
23361;BME280;11852;50.082;18.554;2023-12-22T04:25:53;95770.0;;;3.62;88.86
23361;BME280;11852;50.082;18.554;2023-12-22T04:26:58;95763.0;;;3.78;87.87
23361;BME280;11852;50.082;18.554;2023-12-22T04:28:03;95766.0;;;3.8;87.26
23361;BME280;11852;50.082;18.554;2023-12-22T04:29:08;95761.0;;;3.97;87.04
23361;BME280;11852;50.082;18.554;2023-12-22T04:30:13;95763.0;;;3.88;86.56
23361;BME280;11852;50.082;18.554;2023-12-22T04:31:17;95765.0;;;3.93;86.74
23361;BME280;11852;50.082;18.554;2023-12-22T04:32:22;95760.0;;;3.97;86.38
23361;BME280;11852;50.082;18.554;2023-12-22T04:33:27;95755.0;;;3.71;87.15
23361;BME280;11852;50.082;18.554;2023-12-22T04:34:32;95758.0;;;3.93;86.25
23361;BME280;11852;50.082;18.554;2023-12-22T04:35:37;95759.0;;;3.9;86.22
23361;BME280;11852;50.082;18.554;2023-12-22T04:36:41;95769.0;;;3.97;85.75
23361;BME280;11852;50.082;18.554;2023-12-22T04:37:46;95773.0;;;4.16;85.53
23361;BME280;11852;50.082;18.554;2023-12-22T04:38:51;95771.0;;;4.03;85.28
23361;BME280;11852;50.082;18.554;2023-12-22T04:39:56;95769.0;;;4.13;85.4
23361;BME280;11852;50.082;18.554;2023-12-22T04:41:00;95784.0;;;4.29;85.08
23361;BME280;11852;50.082;18.554;2023-12-22T04:42:05;95781.0;;;3.93;85.13
23361;BME280;11852;50.082;18.554;2023-12-22T04:43:10;95788.0;;;3.87;86.09
23361;BME280;11852;50.082;18.554;2023-12-22T04:44:15;95803.0;;;4.0;86.25
23361;BME280;11852;50.082;18.554;2023-12-22T04:45:20;95804.0;;;3.64;86.65
23361;BME280;11852;50.082;18.554;2023-12-22T04:46:24;95801.0;;;3.86;86.33
23361;BME280;11852;50.082;18.554;2023-12-22T04:47:29;95807.0;;;3.94;86.36
23361;BME280;11852;50.082;18.554;2023-12-22T04:48:34;95807.0;;;4.01;85.95
23361;BME280;11852;50.082;18.554;2023-12-22T04:49:39;95811.0;;;3.96;85.6
23361;BME280;11852;50.082;18.554;2023-12-22T04:50:44;95803.0;;;3.94;85.82
23361;BME280;11852;50.082;18.554;2023-12-22T04:51:48;95797.0;;;4.01;85.63
23361;BME280;11852;50.082;18.554;2023-12-22T04:52:53;95810.0;;;3.96;86.2
23361;BME280;11852;50.082;18.554;2023-12-22T04:53:58;95813.0;;;3.9;86.36
23361;BME280;11852;50.082;18.554;2023-12-22T04:55:03;95823.0;;;4.14;85.45
23361;BME280;11852;50.082;18.554;2023-12-22T04:56:08;95814.0;;;4.25;84.7
23361;BME280;11852;50.082;18.554;2023-12-22T04:57:12;95816.0;;;4.13;85.38
23361;BME280;11852;50.082;18.554;2023-12-22T04:58:17;95813.0;;;4.07;85.32
23361;BME280;11852;50.082;18.554;2023-12-22T04:59:22;95824.0;;;3.73;83.91
23361;BME280;11852;50.082;18.554;2023-12-22T05:00:27;95840.0;;;3.98;82.58
23361;BME280;11852;50.082;18.554;2023-12-22T05:01:32;95821.0;;;3.95;81.95
23361;BME280;11852;50.082;18.554;2023-12-22T05:02:36;95863.0;;;3.99;82.3
23361;BME280;11852;50.082;18.554;2023-12-22T05:03:41;95892.0;;;3.91;83.58
23361;BME280;11852;50.082;18.554;2023-12-22T05:04:46;95900.0;;;3.89;85.89
23361;BME280;11852;50.082;18.554;2023-12-22T05:05:51;95899.0;;;3.93;87.52
23361;BME280;11852;50.082;18.554;2023-12-22T05:06:56;95924.0;;;3.9;88.29
23361;BME280;11852;50.082;18.554;2023-12-22T05:08:00;95915.0;;;3.72;89.77
23361;BME280;11852;50.082;18.554;2023-12-22T05:09:05;95907.0;;;3.66;91.1
23361;BME280;11852;50.082;18.554;2023-12-22T05:10:10;95906.0;;;3.51;88.74
23361;BME280;11852;50.082;18.554;2023-12-22T05:11:15;95909.0;;;3.62;89.47
23361;BME280;11852;50.082;18.554;2023-12-22T05:12:19;95909.0;;;3.55;91.12
23361;BME280;11852;50.082;18.554;2023-12-22T05:13:24;95921.0;;;3.36;91.87
23361;BME280;11852;50.082;18.554;2023-12-22T05:14:29;95918.0;;;3.27;93.46
23361;BME280;11852;50.082;18.554;2023-12-22T05:15:34;95913.0;;;3.3;93.72
23361;BME280;11852;50.082;18.554;2023-12-22T05:16:38;95916.0;;;3.49;93.0
23361;BME280;11852;50.082;18.554;2023-12-22T05:17:43;95909.0;;;3.09;92.01
23361;BME280;11852;50.082;18.554;2023-12-22T05:18:48;95900.0;;;3.14;91.07
23361;BME280;11852;50.082;18.554;2023-12-22T05:19:53;95914.0;;;3.03;90.78
23361;BME280;11852;50.082;18.554;2023-12-22T05:20:58;95902.0;;;2.78;89.47
23361;BME280;11852;50.082;18.554;2023-12-22T05:22:02;95904.0;;;2.99;89.33
23361;BME280;11852;50.082;18.554;2023-12-22T05:23:07;95903.0;;;3.15;88.13
23361;BME280;11852;50.082;18.554;2023-12-22T05:24:12;95896.0;;;3.09;87.43
23361;BME280;11852;50.082;18.554;2023-12-22T05:25:17;95897.0;;;3.15;86.03
23361;BME280;11852;50.082;18.554;2023-12-22T05:26:22;95897.0;;;3.09;86.05
23361;BME280;11852;50.082;18.554;2023-12-22T05:27:26;95907.0;;;3.19;86.0
23361;BME280;11852;50.082;18.554;2023-12-22T05:28:32;95903.0;;;3.03;85.49
23361;BME280;11852;50.082;18.554;2023-12-22T05:29:36;95898.0;;;2.96;85.88
23361;BME280;11852;50.082;18.554;2023-12-22T05:30:41;95905.0;;;2.99;85.07
23361;BME280;11852;50.082;18.554;2023-12-22T05:31:45;95905.0;;;3.03;84.98
23361;BME280;11852;50.082;18.554;2023-12-22T05:32:50;95907.0;;;2.98;84.8
23361;BME280;11852;50.082;18.554;2023-12-22T05:33:55;95906.0;;;3.11;84.74
23361;BME280;11852;50.082;18.554;2023-12-22T05:35:00;95906.0;;;3.12;84.51
23361;BME280;11852;50.082;18.554;2023-12-22T05:36:05;95903.0;;;3.21;84.04
23361;BME280;11852;50.082;18.554;2023-12-22T05:37:09;95911.0;;;3.08;83.81
23361;BME280;11852;50.082;18.554;2023-12-22T05:38:14;95907.0;;;3.18;83.94
23361;BME280;11852;50.082;18.554;2023-12-22T05:39:19;95904.0;;;3.13;83.96
23361;BME280;11852;50.082;18.554;2023-12-22T05:40:24;95908.0;;;2.98;85.17
23361;BME280;11852;50.082;18.554;2023-12-22T05:41:29;95906.0;;;3.04;84.87
23361;BME280;11852;50.082;18.554;2023-12-22T05:42:33;95903.0;;;3.05;84.84
23361;BME280;11852;50.082;18.554;2023-12-22T05:43:38;95904.0;;;2.87;85.5
23361;BME280;11852;50.082;18.554;2023-12-22T05:44:43;95907.0;;;2.91;85.64
23361;BME280;11852;50.082;18.554;2023-12-22T05:45:48;95899.0;;;3.08;85.18
23361;BME280;11852;50.082;18.554;2023-12-22T05:46:52;95904.0;;;3.15;84.98
23361;BME280;11852;50.082;18.554;2023-12-22T05:47:57;95904.0;;;3.15;84.6
23361;BME280;11852;50.082;18.554;2023-12-22T05:49:02;95903.0;;;3.17;84.49
23361;BME280;11852;50.082;18.554;2023-12-22T05:50:07;95905.0;;;3.08;84.09